sensor_id;sensor_type;location;lat;lon;timestamp;temperature;humidity
13998;DHT22;7074;51.508;7.018;2023-04-19T00:00:37;12.80;99.90
13998;DHT22;7074;51.508;7.018;2023-04-19T00:03:04;12.80;99.90
13998;DHT22;7074;51.508;7.018;2023-04-19T00:05:33;12.80;99.90
13998;DHT22;7074;51.508;7.018;2023-04-19T00:08:00;12.80;99.90
13998;DHT22;7074;51.508;7.018;2023-04-19T00:10:28;12.80;99.90
13998;DHT22;7074;51.508;7.018;2023-04-19T00:12:55;12.80;99.90
13998;DHT22;7074;51.508;7.018;2023-04-19T00:15:22;12.80;99.90
13998;DHT22;7074;51.508;7.018;2023-04-19T00:17:49;12.90;99.90
13998;DHT22;7074;51.508;7.018;2023-04-19T00:20:16;12.90;99.90
13998;DHT22;7074;51.508;7.018;2023-04-19T00:22:45;12.90;99.90
13998;DHT22;7074;51.508;7.018;2023-04-19T00:25:12;12.90;99.90
13998;DHT22;7074;51.508;7.018;2023-04-19T00:27:39;12.90;99.90
13998;DHT22;7074;51.508;7.018;2023-04-19T00:30:07;12.90;99.90
13998;DHT22;7074;51.508;7.018;2023-04-19T00:32:34;12.90;99.90
13998;DHT22;7074;51.508;7.018;2023-04-19T00:35:01;12.90;99.90
13998;DHT22;7074;51.508;7.018;2023-04-19T00:37:31;12.90;99.90
13998;DHT22;7074;51.508;7.018;2023-04-19T00:39:59;13.00;99.90
13998;DHT22;7074;51.508;7.018;2023-04-19T00:42:26;12.90;99.90
13998;DHT22;7074;51.508;7.018;2023-04-19T00:44:54;13.00;99.90
13998;DHT22;7074;51.508;7.018;2023-04-19T00:47:21;12.90;99.90
13998;DHT22;7074;51.508;7.018;2023-04-19T00:49:48;12.90;99.90
13998;DHT22;7074;51.508;7.018;2023-04-19T00:52:15;12.90;99.90
13998;DHT22;7074;51.508;7.018;2023-04-19T00:54:44;12.90;99.90
13998;DHT22;7074;51.508;7.018;2023-04-19T00:57:14;12.90;99.90
13998;DHT22;7074;51.508;7.018;2023-04-19T00:59:41;12.90;99.90
13998;DHT22;7074;51.508;7.018;2023-04-19T01:02:08;12.90;99.90
13998;DHT22;7074;51.508;7.018;2023-04-19T01:04:36;12.90;99.90
13998;DHT22;7074;51.508;7.018;2023-04-19T01:07:03;12.90;99.90
13998;DHT22;7074;51.508;7.018;2023-04-19T01:09:31;12.90;99.90
13998;DHT22;7074;51.508;7.018;2023-04-19T01:12:00;12.90;99.90
13998;DHT22;7074;51.508;7.018;2023-04-19T01:14:29;12.90;99.90
13998;DHT22;7074;51.508;7.018;2023-04-19T01:16:56;13.00;99.90
13998;DHT22;7074;51.508;7.018;2023-04-19T01:19:25;13.00;99.90
13998;DHT22;7074;51.508;7.018;2023-04-19T01:21:52;12.90;99.90
13998;DHT22;7074;51.508;7.018;2023-04-19T01:24:22;12.90;99.90
13998;DHT22;7074;51.508;7.018;2023-04-19T01:26:49;12.90;99.90
13998;DHT22;7074;51.508;7.018;2023-04-19T01:29:16;12.90;99.90
13998;DHT22;7074;51.508;7.018;2023-04-19T01:31:46;13.00;99.90
13998;DHT22;7074;51.508;7.018;2023-04-19T01:34:16;12.90;99.90
13998;DHT22;7074;51.508;7.018;2023-04-19T01:36:43;12.90;99.90
13998;DHT22;7074;51.508;7.018;2023-04-19T01:39:11;12.80;99.90
13998;DHT22;7074;51.508;7.018;2023-04-19T01:41:40;12.90;99.90
13998;DHT22;7074;51.508;7.018;2023-04-19T01:44:08;12.80;99.90
13998;DHT22;7074;51.508;7.018;2023-04-19T01:46:36;12.90;99.90
13998;DHT22;7074;51.508;7.018;2023-04-19T01:49:03;12.80;99.90
13998;DHT22;7074;51.508;7.018;2023-04-19T01:51:30;12.80;99.90
13998;DHT22;7074;51.508;7.018;2023-04-19T01:54:00;12.90;99.90
13998;DHT22;7074;51.508;7.018;2023-04-19T01:56:27;12.70;99.90
13998;DHT22;7074;51.508;7.018;2023-04-19T01:58:56;12.80;99.90
13998;DHT22;7074;51.508;7.018;2023-04-19T02:01:23;12.80;99.90
13998;DHT22;7074;51.508;7.018;2023-04-19T02:03:50;12.80;99.90
13998;DHT22;7074;51.508;7.018;2023-04-19T02:06:17;12.90;99.90
13998;DHT22;7074;51.508;7.018;2023-04-19T02:08:44;12.90;99.90
13998;DHT22;7074;51.508;7.018;2023-04-19T02:11:12;12.90;99.90
13998;DHT22;7074;51.508;7.018;2023-04-19T02:13:40;12.80;99.90
13998;DHT22;7074;51.508;7.018;2023-04-19T02:16:09;12.90;99.90
13998;DHT22;7074;51.508;7.018;2023-04-19T02:18:37;12.90;99.90
13998;DHT22;7074;51.508;7.018;2023-04-19T02:21:06;13.00;99.90
13998;DHT22;7074;51.508;7.018;2023-04-19T02:23:34;13.00;99.90
13998;DHT22;7074;51.508;7.018;2023-04-19T02:26:01;12.90;99.90
13998;DHT22;7074;51.508;7.018;2023-04-19T02:28:28;12.90;99.90
13998;DHT22;7074;51.508;7.018;2023-04-19T02:30:56;12.80;99.90
13998;DHT22;7074;51.508;7.018;2023-04-19T02:33:25;12.90;99.90
13998;DHT22;7074;51.508;7.018;2023-04-19T02:35:53;12.90;99.90
13998;DHT22;7074;51.508;7.018;2023-04-19T02:38:20;12.80;99.90
13998;DHT22;7074;51.508;7.018;2023-04-19T02:40:47;12.60;99.90
13998;DHT22;7074;51.508;7.018;2023-04-19T02:43:15;12.70;99.90
13998;DHT22;7074;51.508;7.018;2023-04-19T02:45:42;12.70;99.90
13998;DHT22;7074;51.508;7.018;2023-04-19T02:48:12;12.80;99.90
13998;DHT22;7074;51.508;7.018;2023-04-19T02:50:41;12.80;99.90
13998;DHT22;7074;51.508;7.018;2023-04-19T02:53:08;12.90;99.90
13998;DHT22;7074;51.508;7.018;2023-04-19T02:55:35;12.80;99.90
13998;DHT22;7074;51.508;7.018;2023-04-19T02:58:06;12.70;99.90
13998;DHT22;7074;51.508;7.018;2023-04-19T03:00:40;12.80;99.90
13998;DHT22;7074;51.508;7.018;2023-04-19T03:03:11;12.90;99.90
13998;DHT22;7074;51.508;7.018;2023-04-19T03:05:38;12.80;99.90
13998;DHT22;7074;51.508;7.018;2023-04-19T03:08:07;12.80;99.90
13998;DHT22;7074;51.508;7.018;2023-04-19T03:10:36;12.80;99.90
13998;DHT22;7074;51.508;7.018;2023-04-19T03:13:03;12.70;99.90
13998;DHT22;7074;51.508;7.018;2023-04-19T03:15:30;12.50;99.90
13998;DHT22;7074;51.508;7.018;2023-04-19T03:17:57;12.50;99.90
13998;DHT22;7074;51.508;7.018;2023-04-19T03:20:24;12.60;99.90
13998;DHT22;7074;51.508;7.018;2023-04-19T03:22:52;12.70;99.90
13998;DHT22;7074;51.508;7.018;2023-04-19T03:25:21;12.80;99.90
13998;DHT22;7074;51.508;7.018;2023-04-19T03:27:57;12.70;99.90
13998;DHT22;7074;51.508;7.018;2023-04-19T03:30:44;12.50;99.90
13998;DHT22;7074;51.508;7.018;2023-04-19T03:33:11;12.50;99.90
13998;DHT22;7074;51.508;7.018;2023-04-19T03:35:38;12.70;99.90
13998;DHT22;7074;51.508;7.018;2023-04-19T03:38:10;12.60;99.90
13998;DHT22;7074;51.508;7.018;2023-04-19T03:40:39;12.50;99.90
13998;DHT22;7074;51.508;7.018;2023-04-19T03:43:08;12.50;99.90
13998;DHT22;7074;51.508;7.018;2023-04-19T03:45:36;12.40;99.90
13998;DHT22;7074;51.508;7.018;2023-04-19T03:48:03;12.50;99.90
13998;DHT22;7074;51.508;7.018;2023-04-19T03:50:30;12.50;99.90
13998;DHT22;7074;51.508;7.018;2023-04-19T03:52:58;12.40;99.90
13998;DHT22;7074;51.508;7.018;2023-04-19T03:55:25;12.50;99.90
13998;DHT22;7074;51.508;7.018;2023-04-19T03:57:54;12.50;99.90
13998;DHT22;7074;51.508;7.018;2023-04-19T04:00:33;12.50;99.90
13998;DHT22;7074;51.508;7.018;2023-04-19T04:03:01;12.50;99.90
13998;DHT22;7074;51.508;7.018;2023-04-19T04:05:29;12.30;99.90
13998;DHT22;7074;51.508;7.018;2023-04-19T04:07:56;12.40;99.90
13998;DHT22;7074;51.508;7.018;2023-04-19T04:10:24;12.30;99.90
13998;DHT22;7074;51.508;7.018;2023-04-19T04:12:53;12.00;99.90
13998;DHT22;7074;51.508;7.018;2023-04-19T04:15:32;12.10;99.90
13998;DHT22;7074;51.508;7.018;2023-04-19T04:17:59;12.00;99.90
13998;DHT22;7074;51.508;7.018;2023-04-19T04:20:26;11.90;99.90
13998;DHT22;7074;51.508;7.018;2023-04-19T04:23:00;11.90;99.90
13998;DHT22;7074;51.508;7.018;2023-04-19T04:25:28;12.00;99.90
13998;DHT22;7074;51.508;7.018;2023-04-19T04:28:02;11.80;99.90
13998;DHT22;7074;51.508;7.018;2023-04-19T04:30:30;11.80;99.90
13998;DHT22;7074;51.508;7.018;2023-04-19T04:32:58;11.80;99.90
13998;DHT22;7074;51.508;7.018;2023-04-19T04:35:26;11.90;99.90
13998;DHT22;7074;51.508;7.018;2023-04-19T04:38:03;12.00;99.90
13998;DHT22;7074;51.508;7.018;2023-04-19T04:40:32;11.90;99.90
13998;DHT22;7074;51.508;7.018;2023-04-19T04:42:59;11.90;99.90
13998;DHT22;7074;51.508;7.018;2023-04-19T04:45:31;11.90;99.90
13998;DHT22;7074;51.508;7.018;2023-04-19T04:47:59;11.70;99.90
13998;DHT22;7074;51.508;7.018;2023-04-19T04:50:27;11.70;99.90
13998;DHT22;7074;51.508;7.018;2023-04-19T04:52:55;11.70;99.90
13998;DHT22;7074;51.508;7.018;2023-04-19T04:55:27;11.70;99.90
13998;DHT22;7074;51.508;7.018;2023-04-19T04:57:54;11.50;99.90
13998;DHT22;7074;51.508;7.018;2023-04-19T05:00:29;11.50;99.90
13998;DHT22;7074;51.508;7.018;2023-04-19T05:03:02;11.40;99.90
13998;DHT22;7074;51.508;7.018;2023-04-19T05:05:32;11.40;99.90
13998;DHT22;7074;51.508;7.018;2023-04-19T05:08:00;11.40;99.90
13998;DHT22;7074;51.508;7.018;2023-04-19T05:10:27;11.30;99.90
13998;DHT22;7074;51.508;7.018;2023-04-19T05:12:54;11.40;99.90
13998;DHT22;7074;51.508;7.018;2023-04-19T05:15:22;11.40;99.90
13998;DHT22;7074;51.508;7.018;2023-04-19T05:17:53;11.30;99.90
13998;DHT22;7074;51.508;7.018;2023-04-19T05:20:22;11.30;99.90
13998;DHT22;7074;51.508;7.018;2023-04-19T05:22:59;11.20;99.90
13998;DHT22;7074;51.508;7.018;2023-04-19T05:25:29;11.10;99.90
13998;DHT22;7074;51.508;7.018;2023-04-19T05:27:56;11.10;99.90
13998;DHT22;7074;51.508;7.018;2023-04-19T05:30:25;11.20;99.90
13998;DHT22;7074;51.508;7.018;2023-04-19T05:32:52;11.20;99.90
13998;DHT22;7074;51.508;7.018;2023-04-19T05:35:20;11.20;99.90
13998;DHT22;7074;51.508;7.018;2023-04-19T05:37:48;11.10;99.90
13998;DHT22;7074;51.508;7.018;2023-04-19T05:40:16;11.10;99.90
13998;DHT22;7074;51.508;7.018;2023-04-19T05:42:43;11.20;99.90
13998;DHT22;7074;51.508;7.018;2023-04-19T05:45:11;11.30;99.90
13998;DHT22;7074;51.508;7.018;2023-04-19T05:47:40;11.30;99.90
13998;DHT22;7074;51.508;7.018;2023-04-19T05:50:10;11.30;99.90
13998;DHT22;7074;51.508;7.018;2023-04-19T05:52:45;11.30;99.90
13998;DHT22;7074;51.508;7.018;2023-04-19T05:55:14;11.20;99.90
13998;DHT22;7074;51.508;7.018;2023-04-19T05:57:44;11.20;99.90
13998;DHT22;7074;51.508;7.018;2023-04-19T06:00:14;11.30;99.90
13998;DHT22;7074;51.508;7.018;2023-04-19T06:02:48;11.30;99.90
13998;DHT22;7074;51.508;7.018;2023-04-19T06:05:15;11.40;99.80
13998;DHT22;7074;51.508;7.018;2023-04-19T06:07:42;11.20;99.70
13998;DHT22;7074;51.508;7.018;2023-04-19T06:10:10;11.20;99.50
13998;DHT22;7074;51.508;7.018;2023-04-19T06:12:38;11.30;99.90
13998;DHT22;7074;51.508;7.018;2023-04-19T06:15:06;11.20;99.80
13998;DHT22;7074;51.508;7.018;2023-04-19T06:17:34;11.20;99.60
13998;DHT22;7074;51.508;7.018;2023-04-19T06:20:01;11.20;99.80
13998;DHT22;7074;51.508;7.018;2023-04-19T06:22:31;11.50;99.50
13998;DHT22;7074;51.508;7.018;2023-04-19T06:24:59;11.70;98.80
13998;DHT22;7074;51.508;7.018;2023-04-19T06:27:26;11.70;98.40
13998;DHT22;7074;51.508;7.018;2023-04-19T06:29:55;11.80;97.90
13998;DHT22;7074;51.508;7.018;2023-04-19T06:32:22;11.90;97.30
13998;DHT22;7074;51.508;7.018;2023-04-19T06:34:50;12.00;97.20
13998;DHT22;7074;51.508;7.018;2023-04-19T06:37:17;12.00;96.90
13998;DHT22;7074;51.508;7.018;2023-04-19T06:39:44;12.10;96.50
13998;DHT22;7074;51.508;7.018;2023-04-19T06:42:12;12.00;96.70
13998;DHT22;7074;51.508;7.018;2023-04-19T06:44:39;11.80;95.90
13998;DHT22;7074;51.508;7.018;2023-04-19T06:47:07;12.10;96.00
13998;DHT22;7074;51.508;7.018;2023-04-19T06:49:35;12.00;96.00
13998;DHT22;7074;51.508;7.018;2023-04-19T06:52:02;12.10;96.10
13998;DHT22;7074;51.508;7.018;2023-04-19T06:54:29;12.00;95.80
13998;DHT22;7074;51.508;7.018;2023-04-19T06:56:56;12.10;95.80
13998;DHT22;7074;51.508;7.018;2023-04-19T06:59:23;12.30;95.60
13998;DHT22;7074;51.508;7.018;2023-04-19T07:01:53;12.40;94.70
13998;DHT22;7074;51.508;7.018;2023-04-19T07:04:22;12.50;94.40
13998;DHT22;7074;51.508;7.018;2023-04-19T07:06:49;12.50;94.40
13998;DHT22;7074;51.508;7.018;2023-04-19T07:09:17;12.50;93.60
13998;DHT22;7074;51.508;7.018;2023-04-19T07:11:44;12.50;93.60
13998;DHT22;7074;51.508;7.018;2023-04-19T07:14:12;12.60;92.90
13998;DHT22;7074;51.508;7.018;2023-04-19T07:16:40;12.60;92.90
13998;DHT22;7074;51.508;7.018;2023-04-19T07:19:07;12.50;92.20
13998;DHT22;7074;51.508;7.018;2023-04-19T07:21:36;12.70;92.10
13998;DHT22;7074;51.508;7.018;2023-04-19T07:24:04;12.80;91.80
13998;DHT22;7074;51.508;7.018;2023-04-19T07:26:32;12.80;90.90
13998;DHT22;7074;51.508;7.018;2023-04-19T07:28:59;12.40;90.50
13998;DHT22;7074;51.508;7.018;2023-04-19T07:31:27;12.70;91.70
13998;DHT22;7074;51.508;7.018;2023-04-19T07:33:54;12.80;90.70
13998;DHT22;7074;51.508;7.018;2023-04-19T07:36:21;12.90;90.50
13998;DHT22;7074;51.508;7.018;2023-04-19T07:38:50;13.10;88.50
13998;DHT22;7074;51.508;7.018;2023-04-19T07:41:17;13.00;86.80
13998;DHT22;7074;51.508;7.018;2023-04-19T07:43:44;13.00;87.60
13998;DHT22;7074;51.508;7.018;2023-04-19T07:46:13;13.20;87.90
13998;DHT22;7074;51.508;7.018;2023-04-19T07:48:41;13.40;85.90
13998;DHT22;7074;51.508;7.018;2023-04-19T07:51:09;13.10;84.40
13998;DHT22;7074;51.508;7.018;2023-04-19T07:53:38;13.40;84.40
13998;DHT22;7074;51.508;7.018;2023-04-19T07:56:08;13.20;84.60
13998;DHT22;7074;51.508;7.018;2023-04-19T07:58:36;13.10;81.80
13998;DHT22;7074;51.508;7.018;2023-04-19T08:01:04;13.20;82.50
13998;DHT22;7074;51.508;7.018;2023-04-19T08:03:33;13.00;81.20
13998;DHT22;7074;51.508;7.018;2023-04-19T08:06:01;13.30;81.30
13998;DHT22;7074;51.508;7.018;2023-04-19T08:08:29;13.30;80.60
13998;DHT22;7074;51.508;7.018;2023-04-19T08:10:57;13.40;79.50
13998;DHT22;7074;51.508;7.018;2023-04-19T08:13:25;13.40;80.40
13998;DHT22;7074;51.508;7.018;2023-04-19T08:15:52;13.50;78.80
13998;DHT22;7074;51.508;7.018;2023-04-19T08:18:20;13.40;78.20
13998;DHT22;7074;51.508;7.018;2023-04-19T08:20:47;13.20;80.30
13998;DHT22;7074;51.508;7.018;2023-04-19T08:23:14;13.00;81.50
13998;DHT22;7074;51.508;7.018;2023-04-19T08:25:41;12.80;81.20
13998;DHT22;7074;51.508;7.018;2023-04-19T08:28:08;13.10;81.50
13998;DHT22;7074;51.508;7.018;2023-04-19T08:30:39;13.50;81.40
13998;DHT22;7074;51.508;7.018;2023-04-19T08:33:06;13.60;80.40
13998;DHT22;7074;51.508;7.018;2023-04-19T08:35:33;13.60;80.70
13998;DHT22;7074;51.508;7.018;2023-04-19T08:38:01;13.50;80.00
13998;DHT22;7074;51.508;7.018;2023-04-19T08:40:29;13.10;79.50
13998;DHT22;7074;51.508;7.018;2023-04-19T08:42:57;13.40;79.20
13998;DHT22;7074;51.508;7.018;2023-04-19T08:45:26;13.50;77.60
13998;DHT22;7074;51.508;7.018;2023-04-19T08:47:56;13.50;76.90
13998;DHT22;7074;51.508;7.018;2023-04-19T08:50:24;13.50;76.70
13998;DHT22;7074;51.508;7.018;2023-04-19T08:52:52;13.50;75.90
13998;DHT22;7074;51.508;7.018;2023-04-19T08:55:19;13.70;75.90
13998;DHT22;7074;51.508;7.018;2023-04-19T08:57:46;13.90;74.80
13998;DHT22;7074;51.508;7.018;2023-04-19T09:00:15;13.90;73.50
13998;DHT22;7074;51.508;7.018;2023-04-19T09:02:47;14.00;73.40
13998;DHT22;7074;51.508;7.018;2023-04-19T09:05:17;14.10;73.20
13998;DHT22;7074;51.508;7.018;2023-04-19T09:07:46;14.10;72.00
13998;DHT22;7074;51.508;7.018;2023-04-19T09:10:14;14.10;71.30
13998;DHT22;7074;51.508;7.018;2023-04-19T09:12:42;14.00;71.50
13998;DHT22;7074;51.508;7.018;2023-04-19T09:15:09;13.80;72.00
13998;DHT22;7074;51.508;7.018;2023-04-19T09:17:38;13.70;70.30
13998;DHT22;7074;51.508;7.018;2023-04-19T09:20:06;13.80;69.80
13998;DHT22;7074;51.508;7.018;2023-04-19T09:22:35;13.90;69.30
13998;DHT22;7074;51.508;7.018;2023-04-19T09:25:02;13.90;69.50
13998;DHT22;7074;51.508;7.018;2023-04-19T09:27:31;14.00;68.70
13998;DHT22;7074;51.508;7.018;2023-04-19T09:30:00;14.00;67.90
13998;DHT22;7074;51.508;7.018;2023-04-19T09:32:40;13.90;68.10
13998;DHT22;7074;51.508;7.018;2023-04-19T09:35:10;14.00;66.90
13998;DHT22;7074;51.508;7.018;2023-04-19T09:37:38;14.00;67.20
13998;DHT22;7074;51.508;7.018;2023-04-19T09:40:21;14.30;66.10
13998;DHT22;7074;51.508;7.018;2023-04-19T09:42:49;14.30;66.20
13998;DHT22;7074;51.508;7.018;2023-04-19T09:45:16;14.40;63.70
13998;DHT22;7074;51.508;7.018;2023-04-19T09:47:43;14.30;64.50
13998;DHT22;7074;51.508;7.018;2023-04-19T09:50:12;14.80;65.70
13998;DHT22;7074;51.508;7.018;2023-04-19T09:52:41;14.50;63.80
13998;DHT22;7074;51.508;7.018;2023-04-19T09:55:10;14.40;65.40
13998;DHT22;7074;51.508;7.018;2023-04-19T09:57:37;14.20;66.10
13998;DHT22;7074;51.508;7.018;2023-04-19T10:00:08;14.40;64.70
13998;DHT22;7074;51.508;7.018;2023-04-19T10:02:39;14.60;63.30
13998;DHT22;7074;51.508;7.018;2023-04-19T10:05:07;14.50;61.80
13998;DHT22;7074;51.508;7.018;2023-04-19T10:07:36;14.50;60.40
13998;DHT22;7074;51.508;7.018;2023-04-19T10:10:07;14.50;59.40
13998;DHT22;7074;51.508;7.018;2023-04-19T10:12:34;14.50;59.90
13998;DHT22;7074;51.508;7.018;2023-04-19T10:15:03;14.60;61.50
13998;DHT22;7074;51.508;7.018;2023-04-19T10:17:32;14.70;60.40
13998;DHT22;7074;51.508;7.018;2023-04-19T10:20:03;14.90;60.30
13998;DHT22;7074;51.508;7.018;2023-04-19T10:22:34;14.30;58.90
13998;DHT22;7074;51.508;7.018;2023-04-19T10:25:11;14.60;59.70
13998;DHT22;7074;51.508;7.018;2023-04-19T10:27:39;14.20;58.90
13998;DHT22;7074;51.508;7.018;2023-04-19T10:30:17;14.50;59.70
13998;DHT22;7074;51.508;7.018;2023-04-19T10:32:46;14.90;59.60
13998;DHT22;7074;51.508;7.018;2023-04-19T10:35:19;14.90;60.00
13998;DHT22;7074;51.508;7.018;2023-04-19T10:38:06;14.90;59.50
13998;DHT22;7074;51.508;7.018;2023-04-19T10:40:54;15.20;59.80
13998;DHT22;7074;51.508;7.018;2023-04-19T10:43:22;15.10;59.30
13998;DHT22;7074;51.508;7.018;2023-04-19T10:45:50;15.10;59.00
13998;DHT22;7074;51.508;7.018;2023-04-19T10:48:31;15.00;59.00
13998;DHT22;7074;51.508;7.018;2023-04-19T10:51:00;15.10;59.50
13998;DHT22;7074;51.508;7.018;2023-04-19T10:53:52;15.20;59.20
13998;DHT22;7074;51.508;7.018;2023-04-19T10:59:15;15.00;59.10
13998;DHT22;7074;51.508;7.018;2023-04-19T11:01:53;15.20;58.70
13998;DHT22;7074;51.508;7.018;2023-04-19T11:04:23;15.20;58.40
13998;DHT22;7074;51.508;7.018;2023-04-19T11:07:10;15.30;57.60
13998;DHT22;7074;51.508;7.018;2023-04-19T11:09:38;15.50;57.80
13998;DHT22;7074;51.508;7.018;2023-04-19T11:12:12;15.60;56.40
13998;DHT22;7074;51.508;7.018;2023-04-19T11:14:41;15.50;55.70
13998;DHT22;7074;51.508;7.018;2023-04-19T11:17:18;15.50;54.70
13998;DHT22;7074;51.508;7.018;2023-04-19T11:19:53;15.70;54.50
13998;DHT22;7074;51.508;7.018;2023-04-19T11:22:24;15.60;53.10
13998;DHT22;7074;51.508;7.018;2023-04-19T11:24:52;16.00;51.90
13998;DHT22;7074;51.508;7.018;2023-04-19T11:27:21;16.00;51.10
13998;DHT22;7074;51.508;7.018;2023-04-19T11:29:50;16.10;50.80
13998;DHT22;7074;51.508;7.018;2023-04-19T11:32:20;16.20;50.50
13998;DHT22;7074;51.508;7.018;2023-04-19T11:34:47;16.20;49.50
13998;DHT22;7074;51.508;7.018;2023-04-19T11:37:14;16.20;49.30
13998;DHT22;7074;51.508;7.018;2023-04-19T11:39:45;16.40;49.30
13998;DHT22;7074;51.508;7.018;2023-04-19T11:42:17;16.40;48.50
13998;DHT22;7074;51.508;7.018;2023-04-19T11:44:49;16.20;48.70
13998;DHT22;7074;51.508;7.018;2023-04-19T11:47:18;16.40;49.00
13998;DHT22;7074;51.508;7.018;2023-04-19T11:49:45;16.40;48.90
13998;DHT22;7074;51.508;7.018;2023-04-19T11:52:19;16.20;47.90
13998;DHT22;7074;51.508;7.018;2023-04-19T11:54:47;16.50;47.90
13998;DHT22;7074;51.508;7.018;2023-04-19T11:57:14;15.90;47.00
13998;DHT22;7074;51.508;7.018;2023-04-19T12:00:03;16.20;46.90
13998;DHT22;7074;51.508;7.018;2023-04-19T12:02:38;16.60;47.80
13998;DHT22;7074;51.508;7.018;2023-04-19T12:05:07;16.20;47.30
13998;DHT22;7074;51.508;7.018;2023-04-19T12:07:34;16.50;47.30
13998;DHT22;7074;51.508;7.018;2023-04-19T12:10:07;16.60;47.40
13998;DHT22;7074;51.508;7.018;2023-04-19T12:12:36;16.90;47.60
13998;DHT22;7074;51.508;7.018;2023-04-19T12:15:06;17.00;48.60
13998;DHT22;7074;51.508;7.018;2023-04-19T12:17:34;16.80;48.00
13998;DHT22;7074;51.508;7.018;2023-04-19T12:20:01;16.70;46.60
13998;DHT22;7074;51.508;7.018;2023-04-19T12:22:29;16.90;45.90
13998;DHT22;7074;51.508;7.018;2023-04-19T12:24:56;17.30;45.90
13998;DHT22;7074;51.508;7.018;2023-04-19T12:27:23;16.80;45.00
13998;DHT22;7074;51.508;7.018;2023-04-19T12:29:51;16.80;45.60
13998;DHT22;7074;51.508;7.018;2023-04-19T12:32:19;17.00;46.20
13998;DHT22;7074;51.508;7.018;2023-04-19T12:34:47;17.30;45.50
13998;DHT22;7074;51.508;7.018;2023-04-19T12:37:14;17.30;45.00
13998;DHT22;7074;51.508;7.018;2023-04-19T12:39:41;17.10;44.40
13998;DHT22;7074;51.508;7.018;2023-04-19T12:42:08;17.40;44.10
13998;DHT22;7074;51.508;7.018;2023-04-19T12:44:35;17.50;43.90
13998;DHT22;7074;51.508;7.018;2023-04-19T12:47:02;17.70;42.80
13998;DHT22;7074;51.508;7.018;2023-04-19T12:49:31;17.60;42.60
13998;DHT22;7074;51.508;7.018;2023-04-19T12:51:59;17.80;43.70
13998;DHT22;7074;51.508;7.018;2023-04-19T12:54:26;17.30;43.90
13998;DHT22;7074;51.508;7.018;2023-04-19T12:56:53;16.70;44.50
13998;DHT22;7074;51.508;7.018;2023-04-19T12:59:20;17.10;45.80
13998;DHT22;7074;51.508;7.018;2023-04-19T13:01:48;17.10;46.20
13998;DHT22;7074;51.508;7.018;2023-04-19T13:04:15;17.30;47.00
13998;DHT22;7074;51.508;7.018;2023-04-19T13:06:44;17.10;45.60
13998;DHT22;7074;51.508;7.018;2023-04-19T13:09:11;17.10;45.70
13998;DHT22;7074;51.508;7.018;2023-04-19T13:11:38;17.20;45.90
13998;DHT22;7074;51.508;7.018;2023-04-19T13:14:05;17.20;45.00
13998;DHT22;7074;51.508;7.018;2023-04-19T13:16:32;17.30;45.10
13998;DHT22;7074;51.508;7.018;2023-04-19T13:19:00;17.00;45.50
13998;DHT22;7074;51.508;7.018;2023-04-19T13:21:27;17.00;44.80
13998;DHT22;7074;51.508;7.018;2023-04-19T13:23:57;17.50;43.90
13998;DHT22;7074;51.508;7.018;2023-04-19T13:26:24;17.70;42.80
13998;DHT22;7074;51.508;7.018;2023-04-19T13:28:51;17.90;43.00
13998;DHT22;7074;51.508;7.018;2023-04-19T13:31:19;18.00;42.90
13998;DHT22;7074;51.508;7.018;2023-04-19T13:33:46;18.20;43.00
13998;DHT22;7074;51.508;7.018;2023-04-19T13:36:13;18.40;42.40
13998;DHT22;7074;51.508;7.018;2023-04-19T13:38:40;18.30;41.80
13998;DHT22;7074;51.508;7.018;2023-04-19T13:41:09;17.80;41.10
13998;DHT22;7074;51.508;7.018;2023-04-19T13:43:36;17.60;41.70
13998;DHT22;7074;51.508;7.018;2023-04-19T13:46:04;18.00;43.20
13998;DHT22;7074;51.508;7.018;2023-04-19T13:48:31;17.90;42.60
13998;DHT22;7074;51.508;7.018;2023-04-19T13:50:58;18.00;41.80
13998;DHT22;7074;51.508;7.018;2023-04-19T13:53:26;18.40;41.70
13998;DHT22;7074;51.508;7.018;2023-04-19T13:55:54;18.40;41.20
13998;DHT22;7074;51.508;7.018;2023-04-19T13:58:23;18.60;41.30
13998;DHT22;7074;51.508;7.018;2023-04-19T14:00:51;18.50;40.80
13998;DHT22;7074;51.508;7.018;2023-04-19T14:03:18;18.50;40.50
13998;DHT22;7074;51.508;7.018;2023-04-19T14:05:45;18.40;40.30
13998;DHT22;7074;51.508;7.018;2023-04-19T14:08:13;18.70;40.70
13998;DHT22;7074;51.508;7.018;2023-04-19T14:10:40;18.30;40.60
13998;DHT22;7074;51.508;7.018;2023-04-19T14:13:07;17.70;40.50
13998;DHT22;7074;51.508;7.018;2023-04-19T14:15:36;18.30;39.40
13998;DHT22;7074;51.508;7.018;2023-04-19T14:18:04;18.40;38.60
13998;DHT22;7074;51.508;7.018;2023-04-19T14:20:32;18.50;38.60
13998;DHT22;7074;51.508;7.018;2023-04-19T14:22:59;18.60;38.90
13998;DHT22;7074;51.508;7.018;2023-04-19T14:25:27;18.80;39.20
13998;DHT22;7074;51.508;7.018;2023-04-19T14:27:54;18.80;39.40
13998;DHT22;7074;51.508;7.018;2023-04-19T14:30:21;18.60;39.00
13998;DHT22;7074;51.508;7.018;2023-04-19T14:32:52;18.80;39.60
13998;DHT22;7074;51.508;7.018;2023-04-19T14:35:19;18.20;39.70
13998;DHT22;7074;51.508;7.018;2023-04-19T14:37:46;18.30;41.00
13998;DHT22;7074;51.508;7.018;2023-04-19T14:40:14;18.60;39.40
13998;DHT22;7074;51.508;7.018;2023-04-19T14:42:42;18.30;38.40
13998;DHT22;7074;51.508;7.018;2023-04-19T14:45:10;18.20;38.40
13998;DHT22;7074;51.508;7.018;2023-04-19T14:47:37;18.10;38.00
13998;DHT22;7074;51.508;7.018;2023-04-19T14:50:07;18.00;37.20
13998;DHT22;7074;51.508;7.018;2023-04-19T14:52:34;18.40;37.70
13998;DHT22;7074;51.508;7.018;2023-04-19T14:55:02;18.00;37.80
13998;DHT22;7074;51.508;7.018;2023-04-19T14:57:29;18.10;37.10
13998;DHT22;7074;51.508;7.018;2023-04-19T14:59:56;18.20;37.60
13998;DHT22;7074;51.508;7.018;2023-04-19T15:02:24;18.30;38.10
13998;DHT22;7074;51.508;7.018;2023-04-19T15:04:51;18.40;38.40
13998;DHT22;7074;51.508;7.018;2023-04-19T15:07:20;18.50;38.50
13998;DHT22;7074;51.508;7.018;2023-04-19T15:09:47;18.50;38.40
13998;DHT22;7074;51.508;7.018;2023-04-19T15:12:15;18.50;38.40
13998;DHT22;7074;51.508;7.018;2023-04-19T15:14:42;18.20;38.60
13998;DHT22;7074;51.508;7.018;2023-04-19T15:17:09;18.50;39.10
13998;DHT22;7074;51.508;7.018;2023-04-19T15:19:38;18.40;39.20
13998;DHT22;7074;51.508;7.018;2023-04-19T15:22:05;18.50;39.50
13998;DHT22;7074;51.508;7.018;2023-04-19T15:24:34;18.60;39.50
13998;DHT22;7074;51.508;7.018;2023-04-19T15:27:01;18.20;39.40
13998;DHT22;7074;51.508;7.018;2023-04-19T15:29:28;18.50;40.10
13998;DHT22;7074;51.508;7.018;2023-04-19T15:31:56;18.20;38.60
13998;DHT22;7074;51.508;7.018;2023-04-19T15:34:23;18.30;38.10
13998;DHT22;7074;51.508;7.018;2023-04-19T15:36:50;18.40;38.10
13998;DHT22;7074;51.508;7.018;2023-04-19T15:39:17;18.50;38.30
13998;DHT22;7074;51.508;7.018;2023-04-19T15:41:47;18.50;38.60
13998;DHT22;7074;51.508;7.018;2023-04-19T15:44:15;18.60;39.00
13998;DHT22;7074;51.508;7.018;2023-04-19T15:46:42;18.50;38.60
13998;DHT22;7074;51.508;7.018;2023-04-19T15:49:09;18.20;38.60
13998;DHT22;7074;51.508;7.018;2023-04-19T15:51:37;18.00;38.80
13998;DHT22;7074;51.508;7.018;2023-04-19T15:54:04;18.10;39.40
13998;DHT22;7074;51.508;7.018;2023-04-19T15:56:32;17.60;38.90